Time;durP1;ratioP1;P1;durP2;ratioP2;P2;SDS_P1;SDS_P2;PMS_P1;PMS_P2;Temp;Humidity;BMP_temperature;BMP_pressure;BME280_temperature;BME280_humidity;BME280_pressure;Samples;Min_cycle;Max_cycle;Signal;HPM_P1;HPM_P2
2023/05/14 00:02:04;;;;;;;11.67;10.30;;;10.00;99.90;;;;;;5092833;28;20254;-77
2023/05/14 00:04:34;;;;;;;11.13;10.03;;;10.00;99.90;;;;;;5092605;28;20202;-78
2023/05/14 00:07:02;;;;;;;11.53;10.33;;;10.00;99.90;;;;;;5093243;28;20207;-79
2023/05/14 00:09:30;;;;;;;11.90;10.63;;;10.00;99.90;;;;;;5100640;28;20219;-79
2023/05/14 00:11:58;;;;;;;11.53;10.00;;;10.00;99.90;;;;;;5097679;28;20595;-79
2023/05/14 00:14:26;;;;;;;12.40;10.07;;;10.10;99.90;;;;;;5092934;28;20207;-78
2023/05/14 00:16:55;;;;;;;11.27;10.17;;;10.00;99.90;;;;;;5092881;28;20222;-77
2023/05/14 00:19:23;;;;;;;11.33;10.23;;;10.00;99.90;;;;;;5092803;28;20214;-78
2023/05/14 00:21:52;;;;;;;13.07;10.73;;;10.00;99.90;;;;;;5079722;28;20222;-78
2023/05/14 00:24:20;;;;;;;11.20;10.10;;;9.90;99.90;;;;;;5072484;28;20211;-78
2023/05/14 00:26:48;;;;;;;11.70;10.50;;;9.90;99.90;;;;;;5072433;28;20208;-78
2023/05/14 00:29:16;;;;;;;10.77;9.67;;;9.90;99.90;;;;;;5072725;28;20203;-79
2023/05/14 00:31:45;;;;;;;11.50;10.30;;;9.90;99.90;;;;;;5072266;28;20555;-79
2023/05/14 00:34:13;;;;;;;12.63;10.90;;;9.90;99.90;;;;;;5071749;28;20227;-79
2023/05/14 00:36:41;;;;;;;11.87;10.67;;;9.90;99.90;;;;;;5072180;28;20210;-78
2023/05/14 00:39:11;;;;;;;11.23;10.03;;;9.90;99.90;;;;;;5072220;28;20562;-79
2023/05/14 00:41:39;;;;;;;12.10;10.57;;;9.90;99.90;;;;;;5072187;28;20219;-78
2023/05/14 00:44:07;;;;;;;11.40;10.30;;;9.90;99.90;;;;;;5072940;28;20207;-78
2023/05/14 00:46:35;;;;;;;11.23;10.13;;;9.90;99.90;;;;;;5074468;28;20211;-76
2023/05/14 00:49:03;;;;;;;13.23;10.53;;;9.90;99.90;;;;;;5091890;28;20199;-77
2023/05/14 00:51:31;;;;;;;11.93;10.63;;;9.90;99.90;;;;;;5092155;28;20665;-79
2023/05/14 00:53:59;;;;;;;11.13;10.03;;;9.90;99.90;;;;;;5091885;28;20215;-77
2023/05/14 00:56:29;;;;;;;10.97;9.80;;;9.90;99.90;;;;;;5087067;28;20208;-79
2023/05/14 00:58:57;;;;;;;11.80;9.73;;;9.90;99.90;;;;;;5072001;28;20604;-78
2023/05/14 01:01:27;;;;;;;10.33;9.33;;;9.90;99.90;;;;;;5072166;28;20214;-79
2023/05/14 01:03:56;;;;;;;11.33;10.10;;;9.80;99.90;;;;;;5071373;28;20202;-77
2023/05/14 01:06:34;;;;;;;11.60;10.40;;;9.80;99.90;;;;;;5071505;28;20207;-79
2023/05/14 01:09:17;;;;;;;13.23;10.23;;;9.80;99.90;;;;;;5055038;28;20223;-78
2023/05/14 01:11:55;;;;;;;11.03;9.93;;;9.80;99.90;;;;;;5070826;28;20673;-78
2023/05/14 01:14:41;;;;;;;11.83;10.33;;;9.80;99.90;;;;;;5071910;28;20584;-78
2023/05/14 01:17:12;;;;;;;11.70;10.57;;;9.80;99.90;;;;;;5071846;28;20207;-78
2023/05/14 01:19:42;;;;;;;12.23;11.03;;;9.80;99.90;;;;;;5072277;28;20621;-77
2023/05/14 01:22:12;;;;;;;11.97;10.80;;;9.80;99.90;;;;;;5080652;28;20602;-78
2023/05/14 01:24:40;;;;;;;11.67;10.47;;;9.80;99.90;;;;;;5092626;28;20218;-78
2023/05/14 01:27:14;;;;;;;12.10;10.90;;;9.80;99.90;;;;;;5100547;28;20201;-77
2023/05/14 01:29:49;;;;;;;12.53;11.23;;;9.80;99.90;;;;;;5104500;28;20203;-74
2023/05/14 01:32:22;;;;;;;12.43;11.13;;;9.80;99.90;;;;;;5073105;28;20282;-78
2023/05/14 01:34:51;;;;;;;12.53;10.97;;;9.80;99.90;;;;;;5070675;28;20251;-78
2023/05/14 01:37:22;;;;;;;12.60;10.90;;;9.80;99.90;;;;;;5068993;28;20207;-79
2023/05/14 01:39:51;;;;;;;11.63;10.43;;;9.80;99.90;;;;;;5068907;28;20211;-77
2023/05/14 01:42:19;;;;;;;12.30;10.53;;;9.80;99.90;;;;;;5068495;28;20215;-75
2023/05/14 01:44:48;;;;;;;11.83;10.63;;;9.80;99.90;;;;;;5070081;28;20299;-78
2023/05/14 01:47:16;;;;;;;12.50;11.20;;;9.80;99.90;;;;;;5069709;28;20290;-78
2023/05/14 01:49:44;;;;;;;12.90;10.73;;;9.70;99.90;;;;;;5069672;28;20577;-78
2023/05/14 01:52:12;;;;;;;12.40;11.17;;;9.60;99.90;;;;;;5072016;28;20214;-79
2023/05/14 01:54:41;;;;;;;12.17;10.87;;;9.70;99.90;;;;;;5091830;28;20250;-78
2023/05/14 01:57:09;;;;;;;13.77;10.80;;;9.70;99.90;;;;;;5091478;28;20230;-77
2023/05/14 01:59:37;;;;;;;12.23;11.00;;;9.60;99.90;;;;;;5074601;28;20295;-79
2023/05/14 02:02:05;;;;;;;12.17;10.87;;;9.60;99.90;;;;;;5071282;28;20301;-78
2023/05/14 02:04:33;;;;;;;13.17;11.77;;;9.70;99.90;;;;;;5083500;28;20195;-79
2023/05/14 02:07:01;;;;;;;13.50;11.60;;;9.70;99.90;;;;;;5087071;28;20212;-79
2023/05/14 02:09:29;;;;;;;12.23;10.93;;;9.70;99.90;;;;;;5071525;28;20572;-78
2023/05/14 02:11:59;;;;;;;12.27;10.97;;;9.70;99.90;;;;;;5070747;28;20250;-79
2023/05/14 02:14:26;;;;;;;11.87;10.67;;;9.70;99.90;;;;;;5071563;28;20227;-78
2023/05/14 02:16:55;;;;;;;13.90;11.70;;;9.60;99.90;;;;;;5071397;28;20210;-77
2023/05/14 02:19:23;;;;;;;12.80;11.50;;;9.60;99.90;;;;;;5071619;28;20573;-78
2023/05/14 02:21:51;;;;;;;14.47;11.87;;;9.60;99.90;;;;;;5071340;28;20577;-78
2023/05/14 02:24:19;;;;;;;14.73;11.80;;;9.60;99.90;;;;;;5075048;28;20565;-79
2023/05/14 02:26:47;;;;;;;12.33;11.03;;;9.60;99.90;;;;;;5075026;28;20211;-76
2023/05/14 02:29:16;;;;;;;12.67;11.17;;;9.60;99.90;;;;;;5074788;28;20207;-77
2023/05/14 02:31:44;;;;;;;13.10;11.80;;;9.50;99.90;;;;;;5075031;28;20211;-79
2023/05/14 02:34:12;;;;;;;13.40;12.00;;;9.50;99.90;;;;;;5082383;28;20756;-78
2023/05/14 02:36:40;;;;;;;13.07;11.80;;;9.50;99.90;;;;;;5095119;28;20211;-77
2023/05/14 02:39:08;;;;;;;13.57;12.17;;;9.60;99.90;;;;;;5095085;28;20320;-74
2023/05/14 02:41:36;;;;;;;14.73;12.27;;;9.50;99.90;;;;;;5091923;28;20230;-78
2023/05/14 02:44:05;;;;;;;12.70;11.40;;;9.60;99.90;;;;;;5074593;28;20204;-77
2023/05/14 02:46:35;;;;;;;14.00;11.57;;;9.50;99.90;;;;;;5074664;28;20311;-76
2023/05/14 02:49:03;;;;;;;13.53;12.17;;;9.50;99.90;;;;;;5075250;28;20235;-76
2023/05/14 02:51:31;;;;;;;15.40;12.13;;;9.50;99.90;;;;;;5082263;28;20301;-73
2023/05/14 02:53:59;;;;;;;13.77;12.10;;;9.50;99.90;;;;;;5094493;28;20222;-78
2023/05/14 02:56:27;;;;;;;12.50;11.30;;;9.50;99.90;;;;;;5094146;28;20213;-76
2023/05/14 02:58:55;;;;;;;14.23;10.83;;;9.50;99.90;;;;;;5094442;28;20614;-76
2023/05/14 03:01:23;;;;;;;13.80;12.40;;;9.60;99.90;;;;;;5086144;28;20235;-78
2023/05/14 03:03:53;;;;;;;13.93;12.43;;;9.50;99.90;;;;;;5075356;28;20203;-76
2023/05/14 03:06:21;;;;;;;14.80;13.20;;;9.50;99.90;;;;;;5093242;28;20203;-78
2023/05/14 03:08:49;;;;;;;15.50;12.50;;;9.50;99.90;;;;;;5094080;28;20246;-79
2023/05/14 03:11:17;;;;;;;15.33;12.53;;;9.50;99.90;;;;;;5093775;28;20252;-77
2023/05/14 03:13:46;;;;;;;14.63;11.70;;;9.50;99.90;;;;;;5094132;28;20207;-78
2023/05/14 03:16:14;;;;;;;13.57;12.10;;;9.50;99.90;;;;;;5094156;28;20246;-76
2023/05/14 03:18:42;;;;;;;15.00;12.43;;;9.50;99.90;;;;;;5094134;28;20256;-78
2023/05/14 03:21:11;;;;;;;14.87;12.97;;;9.50;99.90;;;;;;5094496;28;20214;-78
2023/05/14 03:23:39;;;;;;;15.00;13.37;;;9.50;99.90;;;;;;5093589;28;20215;-77
2023/05/14 03:26:07;;;;;;;16.90;12.33;;;9.50;99.90;;;;;;5094288;28;20246;-76
2023/05/14 03:28:35;;;;;;;14.43;12.83;;;9.50;99.90;;;;;;5094197;28;20214;-77
2023/05/14 03:31:04;;;;;;;14.80;12.40;;;9.50;99.90;;;;;;5094042;28;20217;-78
2023/05/14 03:33:32;;;;;;;13.90;12.30;;;9.50;99.90;;;;;;5093420;28;20265;-77
2023/05/14 03:36:00;;;;;;;14.37;12.47;;;9.50;99.90;;;;;;5092526;28;20226;-77
2023/05/14 03:38:30;;;;;;;16.10;13.43;;;9.50;99.90;;;;;;5093523;28;20668;-78
2023/05/14 03:40:58;;;;;;;16.83;12.90;;;9.50;99.90;;;;;;5093825;28;20482;-78
2023/05/14 03:43:26;;;;;;;14.93;13.23;;;9.50;99.90;;;;;;5093144;28;20207;-78
2023/05/14 03:45:54;;;;;;;16.73;13.80;;;9.50;99.90;;;;;;5093488;28;20223;-78
2023/05/14 03:48:22;;;;;;;16.60;13.27;;;9.50;99.90;;;;;;5093396;28;20206;-78
2023/05/14 03:50:50;;;;;;;15.53;13.27;;;9.50;99.90;;;;;;5080107;28;20396;-76
2023/05/14 03:53:18;;;;;;;15.73;13.13;;;9.40;99.90;;;;;;5072520;28;20303;-78
2023/05/14 03:55:47;;;;;;;15.33;13.67;;;9.50;99.90;;;;;;5073067;28;20225;-78
2023/05/14 03:58:16;;;;;;;16.33;14.40;;;9.50;99.90;;;;;;5073071;28;20209;-78
2023/05/14 04:00:44;;;;;;;20.07;14.97;;;9.50;99.90;;;;;;5073193;28;20272;-77
2023/05/14 04:03:12;;;;;;;16.30;13.20;;;9.50;99.90;;;;;;5072836;28;20212;-78
2023/05/14 04:05:40;;;;;;;17.40;13.30;;;9.50;99.90;;;;;;5072918;28;20603;-75
2023/05/14 04:08:08;;;;;;;18.87;15.53;;;9.50;99.90;;;;;;5072229;28;20597;-78
2023/05/14 04:10:36;;;;;;;18.53;15.13;;;9.50;99.90;;;;;;5072921;28;20208;-76
2023/05/14 04:13:06;;;;;;;16.83;14.33;;;9.40;99.90;;;;;;5072339;28;20204;-75
2023/05/14 04:15:34;;;;;;;17.97;14.10;;;9.50;99.90;;;;;;5082163;28;20238;-75
2023/05/14 04:18:02;;;;;;;16.10;14.23;;;9.50;99.90;;;;;;5092748;28;20214;-77
2023/05/14 04:20:30;;;;;;;16.73;13.93;;;9.40;99.90;;;;;;5093037;28;20211;-77
2023/05/14 04:22:58;;;;;;;15.70;13.60;;;9.40;99.90;;;;;;5092786;28;20207;-74
2023/05/14 04:25:27;;;;;;;16.80;13.20;;;9.50;99.90;;;;;;5103467;28;20230;-77
2023/05/14 04:27:55;;;;;;;15.40;13.60;;;9.40;99.90;;;;;;5092891;28;20211;-77
2023/05/14 04:30:25;;;;;;;17.47;13.87;;;9.50;99.90;;;;;;5093418;28;20202;-76
2023/05/14 04:32:53;;;;;;;14.60;13.07;;;9.50;99.90;;;;;;5092363;28;20297;-77
2023/05/14 04:35:21;;;;;;;14.73;12.97;;;9.50;99.90;;;;;;5092626;28;20641;-77
2023/05/14 04:37:52;;;;;;;16.20;13.47;;;9.60;99.90;;;;;;5092924;28;20209;-77
2023/05/14 04:40:21;;;;;;;14.87;13.00;;;9.60;99.90;;;;;;5091820;28;20213;-76
2023/05/14 04:42:49;;;;;;;15.40;12.70;;;9.60;99.90;;;;;;5072156;28;20226;-78
2023/05/14 04:45:18;;;;;;;14.50;13.00;;;9.70;99.90;;;;;;5071943;28;20238;-78
2023/05/14 04:47:47;;;;;;;16.57;13.50;;;9.70;99.90;;;;;;5071832;28;20317;-79
2023/05/14 04:50:16;;;;;;;17.50;13.40;;;9.70;99.90;;;;;;5074975;28;20206;-76
2023/05/14 04:52:44;;;;;;;15.80;13.00;;;9.70;99.90;;;;;;5092510;28;20203;-78
2023/05/14 04:55:12;;;;;;;16.87;13.20;;;9.70;99.90;;;;;;5093681;28;20313;-80
2023/05/14 04:57:40;;;;;;;16.60;13.37;;;9.70;99.90;;;;;;5092081;28;20200;-77
2023/05/14 05:00:10;;;;;;;17.73;13.93;;;9.70;99.90;;;;;;5091793;28;20889;-78
2023/05/14 05:02:38;;;;;;;16.63;14.07;;;9.70;99.90;;;;;;5091866;28;20199;-78
2023/05/14 05:05:08;;;;;;;17.53;13.50;;;9.70;99.90;;;;;;5089883;28;20203;-75
2023/05/14 05:07:36;;;;;;;17.93;14.50;;;9.70;99.90;;;;;;5091914;28;20203;-77
2023/05/14 05:10:05;;;;;;;14.77;13.30;;;9.70;99.90;;;;;;5087634;28;20218;-78
2023/05/14 05:12:34;;;;;;;17.47;14.27;;;9.70;99.90;;;;;;5090696;28;20203;-78
2023/05/14 05:15:02;;;;;;;17.20;14.03;;;9.70;99.90;;;;;;5089574;28;20663;-78
2023/05/14 05:17:30;;;;;;;15.93;14.10;;;9.70;99.90;;;;;;5090731;28;20297;-78
2023/05/14 05:19:58;;;;;;;19.93;14.60;;;9.70;99.90;;;;;;5087913;28;20593;-76
2023/05/14 05:22:28;;;;;;;16.00;13.37;;;9.70;99.90;;;;;;5086654;28;20209;-76
2023/05/14 05:24:56;;;;;;;19.27;14.70;;;9.70;99.90;;;;;;5091058;28;20233;-76
2023/05/14 05:27:24;;;;;;;19.57;13.87;;;9.70;99.90;;;;;;5089410;28;20225;-78
2023/05/14 05:29:53;;;;;;;17.07;14.10;;;9.80;99.90;;;;;;5088953;28;20230;-79
2023/05/14 05:32:21;;;;;;;16.33;13.33;;;9.80;99.90;;;;;;5091504;28;20209;-77
2023/05/14 05:34:50;;;;;;;17.90;14.30;;;9.90;99.90;;;;;;5091498;28;20203;-78
2023/05/14 05:37:18;;;;;;;18.47;13.53;;;9.90;99.90;;;;;;5089161;28;20203;-78
2023/05/14 05:39:48;;;;;;;18.13;13.63;;;9.90;99.90;;;;;;5091082;28;20206;-79
2023/05/14 05:42:16;;;;;;;15.83;13.40;;;10.00;99.90;;;;;;5090589;28;20333;-78
2023/05/14 05:44:44;;;;;;;15.90;13.13;;;10.00;99.90;;;;;;5090324;28;20207;-77
2023/05/14 05:47:12;;;;;;;16.73;13.43;;;9.90;99.90;;;;;;5090964;28;20309;-77
2023/05/14 05:49:40;;;;;;;16.87;12.93;;;9.80;99.90;;;;;;5091757;28;20201;-78
2023/05/14 05:52:09;;;;;;;18.93;14.27;;;9.90;99.90;;;;;;5091170;28;20203;-79
2023/05/14 05:54:38;;;;;;;18.70;13.43;;;9.80;99.90;;;;;;5089081;28;20227;-78
2023/05/14 05:57:08;;;;;;;18.57;14.27;;;9.80;99.90;;;;;;5092116;28;20313;-78
2023/05/14 05:59:36;;;;;;;18.90;13.93;;;9.80;99.90;;;;;;5095058;28;20679;-78
2023/05/14 06:02:04;;;;;;;17.80;13.03;;;9.90;99.90;;;;;;5093743;28;20325;-76
2023/05/14 06:04:32;;;;;;;16.07;12.77;;;9.90;99.90;;;;;;5091979;28;20203;-76
2023/05/14 06:07:04;;;;;;;15.97;13.23;;;9.90;99.90;;;;;;5094383;28;20222;-75
2023/05/14 06:09:32;;;;;;;19.07;12.93;;;10.00;99.90;;;;;;5095235;28;20257;-78
2023/05/14 06:12:00;;;;;;;17.30;13.57;;;10.10;99.90;;;;;;5095104;28;20246;-78
2023/05/14 06:14:29;;;;;;;16.03;13.07;;;10.20;99.90;;;;;;5094975;28;20211;-78
2023/05/14 06:16:58;;;;;;;14.23;12.37;;;10.30;99.90;;;;;;5092141;28;20687;-78
2023/05/14 06:19:26;;;;;;;17.73;12.80;;;10.40;99.90;;;;;;5095474;28;20337;-78
2023/05/14 06:21:54;;;;;;;16.00;12.97;;;10.50;99.90;;;;;;5094934;28;20669;-77
2023/05/14 06:24:22;;;;;;;16.17;11.97;;;10.50;99.90;;;;;;5095216;28;20203;-77
2023/05/14 06:26:50;;;;;;;17.17;12.60;;;10.50;99.90;;;;;;5095359;28;20195;-77
2023/05/14 06:29:18;;;;;;;17.27;12.70;;;10.60;99.90;;;;;;5095302;28;20215;-77
2023/05/14 06:31:48;;;;;;;15.37;13.17;;;10.60;99.90;;;;;;5094534;28;20531;-77
2023/05/14 06:34:17;;;;;;;16.27;11.80;;;10.70;99.90;;;;;;5086514;28;20211;-77
2023/05/14 06:36:45;;;;;;;15.70;12.70;;;10.70;99.90;;;;;;5075746;28;20223;-77
2023/05/14 06:39:13;;;;;;;15.57;12.47;;;10.70;99.90;;;;;;5075226;28;20229;-75
2023/05/14 06:41:41;;;;;;;13.77;12.37;;;10.70;99.90;;;;;;5074974;28;20208;-76
2023/05/14 06:44:09;;;;;;;15.20;12.93;;;10.70;99.90;;;;;;5075395;28;20298;-73
2023/05/14 06:46:37;;;;;;;16.13;11.87;;;10.70;99.90;;;;;;5089201;28;20207;-77
2023/05/14 06:49:07;;;;;;;15.53;12.67;;;10.80;99.90;;;;;;5079411;28;20658;-76
2023/05/14 06:51:35;;;;;;;13.40;12.00;;;10.80;99.90;;;;;;5074874;28;20235;-78
2023/05/14 06:54:03;;;;;;;15.80;11.50;;;10.90;99.90;;;;;;5074220;28;20212;-77
2023/05/14 06:56:31;;;;;;;12.70;11.17;;;11.00;99.90;;;;;;5074220;28;20223;-77
2023/05/14 06:58:59;;;;;;;13.57;11.40;;;11.00;99.90;;;;;;5074352;28;20203;-79
2023/05/14 07:01:27;;;;;;;14.70;11.67;;;11.20;99.90;;;;;;5073936;28;20222;-77
2023/05/14 07:03:55;;;;;;;12.60;11.30;;;11.30;99.90;;;;;;5088316;28;20199;-78
2023/05/14 07:06:25;;;;;;;14.17;11.50;;;11.30;99.90;;;;;;5074106;28;20243;-78
2023/05/14 07:08:53;;;;;;;11.47;10.10;;;11.50;99.90;;;;;;5073304;28;20319;-77
2023/05/14 07:11:21;;;;;;;14.00;10.47;;;11.70;99.90;;;;;;5073848;28;20581;-78
2023/05/14 07:13:50;;;;;;;11.03;9.90;;;12.00;99.90;;;;;;5073891;28;20203;-77
2023/05/14 07:16:18;;;;;;;11.10;9.93;;;12.10;99.90;;;;;;5074198;28;20227;-78
2023/05/14 07:18:46;;;;;;;10.77;9.60;;;12.00;99.90;;;;;;5073917;28;20574;-77
2023/05/14 07:21:15;;;;;;;10.40;9.13;;;12.00;99.90;;;;;;5074104;28;20208;-77
2023/05/14 07:23:44;;;;;;;10.67;9.60;;;12.10;99.90;;;;;;5073576;28;20219;-77
2023/05/14 07:26:13;;;;;;;11.50;9.30;;;12.00;99.90;;;;;;5074141;28;20203;-77
2023/05/14 07:28:41;;;;;;;10.53;9.13;;;12.00;99.90;;;;;;5073950;28;20576;-78
2023/05/14 07:31:09;;;;;;;10.17;9.03;;;11.90;99.90;;;;;;5075521;28;20299;-75
2023/05/14 07:33:38;;;;;;;11.13;8.63;;;12.00;99.90;;;;;;5077694;28;20420;-77
2023/05/14 07:36:07;;;;;;;9.57;8.50;;;12.20;99.90;;;;;;5073862;28;20709;-76
2023/05/14 07:38:36;;;;;;;9.73;8.73;;;12.10;99.90;;;;;;5074038;28;20211;-76
2023/05/14 07:41:05;;;;;;;9.53;8.30;;;12.10;99.90;;;;;;5074149;28;20277;-74
2023/05/14 07:43:33;;;;;;;10.83;8.70;;;12.10;99.90;;;;;;5073143;28;20569;-74
2023/05/14 07:46:01;;;;;;;10.83;8.90;;;12.10;99.90;;;;;;5092464;28;20264;-75
2023/05/14 07:48:29;;;;;;;9.30;8.40;;;12.10;99.90;;;;;;5091931;28;20217;-75
2023/05/14 07:50:58;;;;;;;9.57;8.57;;;12.10;99.90;;;;;;5092322;28;20260;-74
2023/05/14 07:53:26;;;;;;;9.43;8.53;;;12.20;99.90;;;;;;5091367;28;20219;-76
2023/05/14 07:55:54;;;;;;;9.20;8.20;;;12.20;99.90;;;;;;5092010;28;20310;-76
2023/05/14 07:58:23;;;;;;;11.33;9.10;;;12.40;99.90;;;;;;5091620;28;20253;-77
2023/05/14 08:00:52;;;;;;;9.33;8.33;;;12.40;99.90;;;;;;5092286;28;20233;-73
2023/05/14 08:03:20;;;;;;;9.50;8.53;;;12.40;99.90;;;;;;5092784;28;20209;-76
2023/05/14 08:05:48;;;;;;;8.77;7.93;;;12.30;99.90;;;;;;5093372;28;20651;-77
2023/05/14 08:08:16;;;;;;;9.40;8.13;;;12.50;99.90;;;;;;5095574;28;20231;-76
2023/05/14 08:10:44;;;;;;;8.80;7.90;;;12.50;99.90;;;;;;5093808;28;20217;-77
2023/05/14 08:13:13;;;;;;;8.50;7.60;;;12.40;99.90;;;;;;5096032;28;20243;-76
2023/05/14 08:15:42;;;;;;;8.53;7.70;;;12.30;99.90;;;;;;5093145;28;20297;-75
2023/05/14 08:18:10;;;;;;;8.93;8.03;;;12.30;99.90;;;;;;5073917;28;20230;-75
2023/05/14 08:20:39;;;;;;;8.40;7.50;;;12.30;99.90;;;;;;5072740;28;20230;-75
2023/05/14 08:23:08;;;;;;;8.60;7.70;;;12.40;99.90;;;;;;5072190;28;20245;-77
2023/05/14 08:25:36;;;;;;;8.23;7.33;;;12.30;99.90;;;;;;5072574;28;20208;-79
2023/05/14 08:28:04;;;;;;;9.37;7.30;;;12.30;99.90;;;;;;5078560;28;20579;-77
2023/05/14 08:30:32;;;;;;;7.90;7.10;;;12.30;99.90;;;;;;5090827;28;20245;-79
2023/05/14 08:33:02;;;;;;;7.60;6.80;;;12.30;99.90;;;;;;5093910;28;20211;-79
2023/05/14 08:35:30;;;;;;;9.57;7.77;;;12.30;99.90;;;;;;5087498;28;20660;-77
2023/05/14 08:37:58;;;;;;;10.40;6.83;;;12.30;99.90;;;;;;5079451;28;20224;-75
2023/05/14 08:40:27;;;;;;;8.00;6.77;;;12.30;99.90;;;;;;5093348;28;20688;-74
2023/05/14 08:42:57;;;;;;;8.77;6.83;;;12.40;99.90;;;;;;5092109;28;20406;-75
2023/05/14 08:45:30;;;;;;;8.27;6.97;;;12.50;99.90;;;;;;5087297;28;20196;-74
2023/05/14 08:47:59;;;;;;;7.63;6.83;;;12.60;99.90;;;;;;5072294;28;20271;-77
2023/05/14 08:50:29;;;;;;;7.60;6.90;;;12.60;99.90;;;;;;5072273;28;20204;-75
2023/05/14 08:52:58;;;;;;;7.37;6.53;;;12.60;99.90;;;;;;5074605;28;20249;-74
2023/05/14 08:55:28;;;;;;;7.07;6.37;;;12.60;99.90;;;;;;5090664;28;20210;-76
2023/05/14 08:57:56;;;;;;;7.63;6.83;;;12.60;99.90;;;;;;5091992;28;20241;-76
2023/05/14 09:00:25;;;;;;;7.23;6.53;;;12.60;99.90;;;;;;5072906;28;20462;-75
2023/05/14 09:02:54;;;;;;;7.57;6.77;;;12.60;99.90;;;;;;5085606;28;20207;-74
2023/05/14 09:05:23;;;;;;;8.73;7.90;;;12.60;99.90;;;;;;5085702;28;20815;-74
2023/05/14 09:07:53;;;;;;;9.10;7.43;;;12.60;99.90;;;;;;5091571;28;20195;-75
2023/05/14 09:10:21;;;;;;;9.00;8.10;;;12.60;99.90;;;;;;5092058;28;20202;-73
2023/05/14 09:12:50;;;;;;;11.13;8.00;;;12.60;99.90;;;;;;5091556;28;20222;-73
2023/05/14 09:15:18;;;;;;;8.40;7.53;;;12.60;99.90;;;;;;5092478;28;20213;-75
2023/05/14 09:17:48;;;;;;;8.53;7.47;;;12.50;99.90;;;;;;5087783;28;20306;-74
2023/05/14 09:20:16;;;;;;;8.63;7.50;;;12.50;99.90;;;;;;5087862;28;20214;-74
2023/05/14 09:22:44;;;;;;;8.37;7.47;;;12.60;99.90;;;;;;5089811;28;20545;-74
2023/05/14 09:25:14;;;;;;;8.87;7.47;;;12.40;99.90;;;;;;5085810;28;20211;-74
2023/05/14 09:27:42;;;;;;;8.87;7.13;;;12.50;99.90;;;;;;5091680;28;20207;-76
2023/05/14 09:30:11;;;;;;;8.47;7.57;;;12.60;99.90;;;;;;5091582;28;20285;-74
2023/05/14 09:32:42;;;;;;;8.20;7.27;;;12.70;99.90;;;;;;5093007;28;20554;-72
2023/05/14 09:35:13;;;;;;;8.30;7.20;;;12.80;99.90;;;;;;5090033;28;20212;-77
2023/05/14 09:37:42;;;;;;;9.20;7.40;;;12.90;99.90;;;;;;5075703;28;20211;-77
2023/05/14 09:40:12;;;;;;;7.77;6.33;;;12.80;99.90;;;;;;5091574;28;20237;-78
2023/05/14 09:42:41;;;;;;;7.53;6.80;;;12.90;99.90;;;;;;5095363;28;20217;-76
2023/05/14 09:45:10;;;;;;;7.20;6.50;;;12.90;99.90;;;;;;5080471;28;20576;-77
2023/05/14 09:47:39;;;;;;;7.73;6.93;;;12.90;99.90;;;;;;5075724;28;20678;-78
2023/05/14 09:50:08;;;;;;;7.83;7.07;;;12.70;99.90;;;;;;5086341;28;20210;-76
2023/05/14 09:52:36;;;;;;;10.90;7.50;;;12.70;99.90;;;;;;5088482;28;20208;-78
2023/05/14 09:55:05;;;;;;;8.53;7.73;;;12.70;99.90;;;;;;5076815;28;20211;-76
2023/05/14 09:57:33;;;;;;;8.33;7.50;;;12.60;99.90;;;;;;5079993;28;20227;-74
2023/05/14 10:00:03;;;;;;;8.50;7.40;;;12.60;99.90;;;;;;5090543;28;20203;-76
2023/05/14 10:02:36;;;;;;;8.50;7.00;;;12.60;99.90;;;;;;5095761;28;20591;-77
2023/05/14 10:05:06;;;;;;;8.63;6.40;;;12.80;99.90;;;;;;5094641;28;20207;-75
2023/05/14 10:07:39;;;;;;;7.53;6.80;;;13.30;99.90;;;;;;5095530;28;20298;-77
2023/05/14 10:10:10;;;;;;;7.20;5.87;;;13.50;99.90;;;;;;5093066;28;20215;-79
2023/05/14 10:12:40;;;;;;;6.90;6.20;;;14.00;99.90;;;;;;5093666;28;20256;-79
2023/05/14 10:15:17;;;;;;;6.37;5.77;;;14.10;99.90;;;;;;5096296;28;20270;-76
2023/05/14 10:17:49;;;;;;;7.23;6.13;;;14.10;99.90;;;;;;5088445;28;20230;-74
2023/05/14 10:20:18;;;;;;;6.67;5.93;;;14.30;99.90;;;;;;5090554;28;20195;-75
2023/05/14 10:22:46;;;;;;;6.07;5.47;;;14.60;99.90;;;;;;5092223;28;20199;-73
2023/05/14 10:25:15;;;;;;;6.50;5.80;;;15.00;99.90;;;;;;5095191;28;20214;-77
2023/05/14 10:27:43;;;;;;;6.17;5.57;;;14.90;99.90;;;;;;5093360;28;20241;-74
2023/05/14 10:30:13;;;;;;;7.53;6.10;;;15.10;99.90;;;;;;5094488;28;20233;-76
2023/05/14 10:32:42;;;;;;;6.53;5.93;;;14.60;99.90;;;;;;5093741;28;20211;-77
2023/05/14 10:35:19;;;;;;;6.60;5.90;;;14.40;99.90;;;;;;5085480;28;20261;-73
2023/05/14 10:37:50;;;;;;;6.67;5.97;;;14.40;99.90;;;;;;5095855;28;20700;-79
2023/05/14 10:40:19;;;;;;;7.37;6.50;;;14.90;99.90;;;;;;5094758;28;20221;-78
2023/05/14 10:42:47;;;;;;;6.33;5.73;;;14.90;99.90;;;;;;5087200;28;20619;-78
2023/05/14 10:45:17;;;;;;;6.90;6.20;;;14.60;99.90;;;;;;5094655;28;20780;-77
2023/05/14 10:47:46;;;;;;;6.90;6.20;;;14.40;99.90;;;;;;5094676;28;20214;-79
2023/05/14 10:50:16;;;;;;;6.93;6.23;;;14.70;99.90;;;;;;5089514;28;20203;-77
2023/05/14 10:52:45;;;;;;;10.17;5.87;;;14.50;99.90;;;;;;5092990;28;20213;-77
2023/05/14 10:55:15;;;;;;;7.17;6.03;;;14.50;99.90;;;;;;5094780;28;20230;-76
2023/05/14 10:57:44;;;;;;;6.57;5.70;;;14.90;99.90;;;;;;5094549;28;20301;-77
2023/05/14 11:00:14;;;;;;;7.00;5.97;;;14.60;99.90;;;;;;5091842;28;20306;-76
2023/05/14 11:02:45;;;;;;;6.63;5.93;;;14.40;99.90;;;;;;5074331;28;20212;-77
2023/05/14 11:05:15;;;;;;;7.37;6.10;;;14.60;99.90;;;;;;5075389;28;20718;-76
2023/05/14 11:07:46;;;;;;;7.10;6.40;;;14.50;99.90;;;;;;5091320;28;20691;-77
2023/05/14 11:10:16;;;;;;;7.20;6.20;;;14.30;99.90;;;;;;5090548;28;20203;-78
2023/05/14 11:12:45;;;;;;;6.80;6.10;;;14.30;99.90;;;;;;5094036;28;20247;-77
2023/05/14 11:15:16;;;;;;;6.80;5.57;;;14.30;99.90;;;;;;5091870;28;20838;-77
2023/05/14 11:17:47;;;;;;;6.77;5.60;;;14.20;99.90;;;;;;5074504;28;20239;-77
2023/05/14 11:20:16;;;;;;;6.57;5.90;;;14.00;99.90;;;;;;5074673;28;20276;-74
2023/05/14 11:22:45;;;;;;;6.37;5.77;;;14.10;99.90;;;;;;5083553;28;20546;-74
2023/05/14 11:25:14;;;;;;;7.03;5.23;;;14.20;99.90;;;;;;5086901;28;20207;-74
2023/05/14 11:27:44;;;;;;;6.70;5.60;;;14.60;99.90;;;;;;5098694;28;20264;-76
2023/05/14 11:30:14;;;;;;;7.63;5.50;;;15.30;99.90;;;;;;5096522;28;20229;-76
2023/05/14 11:32:46;;;;;;;5.90;5.30;;;16.40;99.90;;;;;;5097704;28;20237;-74
2023/05/14 11:35:15;;;;;;;5.57;5.00;;;17.00;99.90;;;;;;5081492;28;20204;-77
2023/05/14 11:37:49;;;;;;;6.13;5.53;;;17.30;99.90;;;;;;5085347;28;20679;-77
2023/05/14 11:40:18;;;;;;;5.93;5.30;;;17.00;99.90;;;;;;5094914;28;20246;-75
2023/05/14 11:42:46;;;;;;;5.87;5.27;;;17.00;99.90;;;;;;5096960;28;20257;-77
2023/05/14 11:45:25;;;;;;;6.70;5.60;;;16.70;99.90;;;;;;5094005;28;20205;-76
2023/05/14 11:47:54;;;;;;;5.90;5.30;;;16.50;99.90;;;;;;5087461;28;20300;-75
2023/05/14 11:50:23;;;;;;;9.43;5.00;;;16.20;99.90;;;;;;5093779;28;20211;-74
2023/05/14 11:52:56;;;;;;;6.07;5.30;;;16.90;99.90;;;;;;5092343;28;20250;-76
2023/05/14 11:55:24;;;;;;;5.93;5.10;;;17.10;99.90;;;;;;5098753;28;20207;-73
2023/05/14 11:57:53;;;;;;;6.17;5.53;;;16.80;99.90;;;;;;5097279;28;20203;-74
2023/05/14 12:00:22;;;;;;;6.30;5.43;;;16.80;99.90;;;;;;5097011;28;20250;-77
2023/05/14 12:02:52;;;;;;;6.77;5.70;;;16.90;99.90;;;;;;5095274;28;20294;-75
2023/05/14 12:05:22;;;;;;;6.07;5.47;;;17.10;99.90;;;;;;5097894;28;20229;-73
2023/05/14 12:07:51;;;;;;;6.33;5.73;;;16.70;99.90;;;;;;5098995;28;20207;-75
2023/05/14 12:10:20;;;;;;;6.77;5.57;;;17.10;99.90;;;;;;5093409;28;20209;-75
2023/05/14 12:12:49;;;;;;;6.90;5.20;;;17.50;99.90;;;;;;5095431;28;20210;-77
2023/05/14 12:15:17;;;;;;;5.57;5.00;;;17.60;99.90;;;;;;5093230;28;20210;-75
2023/05/14 12:17:50;;;;;;;5.50;4.97;;;18.10;99.90;;;;;;5089767;28;20557;-77
2023/05/14 12:20:18;;;;;;;4.90;4.40;;;18.50;99.90;;;;;;5072776;28;20231;-74
2023/05/14 12:22:48;;;;;;;4.57;4.17;;;18.70;99.90;;;;;;5079687;28;20738;-77
2023/05/14 12:25:16;;;;;;;5.37;4.87;;;18.30;99.90;;;;;;5092780;28;20211;-74
2023/05/14 12:27:45;;;;;;;5.43;4.30;;;18.60;99.90;;;;;;5074162;28;20302;-75
2023/05/14 12:30:14;;;;;;;5.27;4.70;;;18.80;99.90;;;;;;5072880;28;20241;-77
2023/05/14 12:32:45;;;;;;;6.10;4.33;;;18.50;99.90;;;;;;5072756;28;20676;-75
2023/05/14 12:35:13;;;;;;;5.27;4.67;;;18.90;99.90;;;;;;5072437;28;20217;-76
2023/05/14 12:37:41;;;;;;;4.90;4.13;;;18.80;99.90;;;;;;5081991;28;20298;-76
2023/05/14 12:40:12;;;;;;;4.57;4.17;;;18.70;99.90;;;;;;5092962;28;20233;-76
2023/05/14 12:42:40;;;;;;;5.17;4.03;;;19.20;99.90;;;;;;5079521;28;20629;-74
2023/05/14 12:45:09;;;;;;;4.93;4.43;;;19.50;99.90;;;;;;5072645;28;20218;-75
2023/05/14 12:47:37;;;;;;;4.40;4.00;;;19.30;99.90;;;;;;5083367;28;20207;-76
2023/05/14 12:50:06;;;;;;;6.73;4.40;;;19.30;99.90;;;;;;5081183;28;20195;-73